createdAt,value
2023-02-20T00:00:36.878Z,33.07
2023-02-20T00:03:05.274Z,33.50
2023-02-20T00:05:32.968Z,33.30
2023-02-20T00:08:00.932Z,32.03
2023-02-20T00:10:28.658Z,33.43
2023-02-20T00:12:56.247Z,31.87
2023-02-20T00:15:25.209Z,33.53
2023-02-20T00:17:52.921Z,32.10
2023-02-20T00:20:22.333Z,32.47
2023-02-20T00:22:50.333Z,34.13
2023-02-20T00:25:18.317Z,32.30
2023-02-20T00:27:46.662Z,32.70
2023-02-20T00:30:17.756Z,34.53
2023-02-20T00:32:47.069Z,33.10
2023-02-20T00:35:15.467Z,33.33
2023-02-20T00:37:43.216Z,33.83
2023-02-20T00:40:11.733Z,33.30
2023-02-20T00:42:39.292Z,34.53
2023-02-20T00:45:08.065Z,34.23
2023-02-20T00:47:35.657Z,33.43
2023-02-20T00:50:05.423Z,33.83
2023-02-20T00:52:33.033Z,34.77
2023-02-20T00:55:00.627Z,35.40
2023-02-20T00:57:28.290Z,35.40
2023-02-20T00:59:55.941Z,35.13
2023-02-20T01:02:23.636Z,34.77
2023-02-20T01:04:51.388Z,34.47
2023-02-20T01:07:20.387Z,34.87
2023-02-20T01:09:47.982Z,34.60
2023-02-20T01:12:15.610Z,35.07
2023-02-20T01:14:43.525Z,34.47
2023-02-20T01:17:13.151Z,35.43
2023-02-20T01:19:40.707Z,34.30
2023-02-20T01:22:08.880Z,33.97
2023-02-20T01:24:37.832Z,35.53
2023-02-20T01:27:05.756Z,34.30
2023-02-20T01:29:33.334Z,34.67
2023-02-20T01:32:01.100Z,34.73
2023-02-20T01:34:28.778Z,33.40
2023-02-20T01:36:56.634Z,34.87
2023-02-20T01:39:26.649Z,35.27
2023-02-20T01:42:01.049Z,34.50
2023-02-20T01:44:30.766Z,34.60
2023-02-20T01:46:59.264Z,36.50
2023-02-20T01:49:33.858Z,35.90
2023-02-20T01:52:09.760Z,35.53
2023-02-20T01:54:40.062Z,33.90
2023-02-20T01:57:14.257Z,35.50
2023-02-20T01:59:42.649Z,34.37
2023-02-20T02:02:11.521Z,36.33
2023-02-20T02:04:41.757Z,36.93
2023-02-20T02:07:10.956Z,36.17
2023-02-20T02:09:44.821Z,35.97
2023-02-20T02:12:13.819Z,36.13
2023-02-20T02:14:41.437Z,36.57
2023-02-20T02:17:29.479Z,36.17
2023-02-20T02:20:36.335Z,36.20
2023-02-20T02:23:33.197Z,35.20
2023-02-20T02:26:17.490Z,36.50
2023-02-20T02:29:21.682Z,35.93
2023-02-20T02:32:22.057Z,37.60
2023-02-20T02:35:18.803Z,36.23
2023-02-20T02:37:56.373Z,37.43
2023-02-20T02:40:30.154Z,37.27
2023-02-20T02:43:05.775Z,37.67
2023-02-20T02:45:39.401Z,38.20
2023-02-20T02:48:12.607Z,38.13
2023-02-20T02:50:44.489Z,38.60
2023-02-20T02:53:15.531Z,36.73
2023-02-20T02:55:43.128Z,37.83
2023-02-20T02:58:12.219Z,38.30
2023-02-20T03:00:44.440Z,40.13
2023-02-20T03:03:17.198Z,39.40
2023-02-20T03:05:50.361Z,40.03
2023-02-20T03:08:40.855Z,41.27
2023-02-20T03:11:10.796Z,39.17
2023-02-20T03:14:00.918Z,38.73
2023-02-20T03:16:42.609Z,40.93
2023-02-20T03:19:15.845Z,40.30
2023-02-20T03:21:47.911Z,42.20
2023-02-20T03:24:21.346Z,39.30
2023-02-20T03:26:50.177Z,39.80
2023-02-20T03:29:24.387Z,40.40
2023-02-20T03:32:14.091Z,41.23
2023-02-20T03:35:01.451Z,40.93
2023-02-20T03:37:48.790Z,43.60
2023-02-20T03:40:37.192Z,44.00
2023-02-20T03:43:23.092Z,42.60
2023-02-20T03:45:52.591Z,40.90
2023-02-20T03:48:23.700Z,43.93
2023-02-20T03:51:09.014Z,45.80
2023-02-20T03:53:37.100Z,44.57
2023-02-20T03:56:11.772Z,45.20
2023-02-20T03:58:46.962Z,43.80
2023-02-20T04:01:18.037Z,44.40
2023-02-20T04:03:49.388Z,44.70
2023-02-20T04:06:19.554Z,45.03
2023-02-20T04:08:54.060Z,44.80
2023-02-20T04:11:26.643Z,45.30
2023-02-20T04:13:56.256Z,46.10
2023-02-20T04:16:25.198Z,44.50
2023-02-20T04:18:53.213Z,44.47
2023-02-20T04:21:27.511Z,47.07
2023-02-20T04:24:03.957Z,44.97
2023-02-20T04:26:33.262Z,44.70
2023-02-20T04:29:00.892Z,46.03
2023-02-20T04:31:28.824Z,48.20
2023-02-20T04:33:56.509Z,46.97
2023-02-20T04:36:24.691Z,48.57
2023-02-20T04:38:52.305Z,52.17
2023-02-20T04:41:19.911Z,51.10
2023-02-20T04:43:49.302Z,48.57
2023-02-20T04:46:17.586Z,49.77
2023-02-20T04:48:45.422Z,49.93
2023-02-20T04:51:12.987Z,49.70
2023-02-20T04:53:40.532Z,49.77
2023-02-20T04:56:08.262Z,50.60
2023-02-20T04:58:37.289Z,49.23
2023-02-20T05:01:06.275Z,50.03
2023-02-20T05:03:33.851Z,50.50
2023-02-20T05:06:01.459Z,48.50
2023-02-20T05:08:32.010Z,50.60
2023-02-20T05:10:59.612Z,50.27
2023-02-20T05:13:27.194Z,49.63
2023-02-20T05:15:54.852Z,48.03
2023-02-20T05:18:27.294Z,49.23
2023-02-20T05:21:12.744Z,47.50
2023-02-20T05:23:40.871Z,50.37
2023-02-20T05:26:10.485Z,48.60
2023-02-20T05:28:39.628Z,48.80
2023-02-20T05:31:07.888Z,48.77
2023-02-20T05:33:36.889Z,49.57
2023-02-20T05:36:05.065Z,49.60
2023-02-20T05:38:32.644Z,48.90
2023-02-20T05:41:00.265Z,49.10
2023-02-20T05:43:27.877Z,47.83
2023-02-20T05:45:55.450Z,51.17
2023-02-20T05:48:23.004Z,49.13
2023-02-20T05:50:54.033Z,47.60
2023-02-20T05:53:21.681Z,51.13
2023-02-20T05:55:49.353Z,48.70
2023-02-20T05:58:17.047Z,49.30
2023-02-20T06:00:44.587Z,50.03
2023-02-20T06:03:12.163Z,51.73
2023-02-20T06:05:39.759Z,51.37
2023-02-20T06:08:08.773Z,52.27
2023-02-20T06:10:36.813Z,52.53
2023-02-20T06:13:04.453Z,51.00
2023-02-20T06:15:32.078Z,51.07
2023-02-20T06:17:59.663Z,49.83
2023-02-20T06:20:27.484Z,51.20
2023-02-20T06:22:55.057Z,50.83
2023-02-20T06:25:24.058Z,50.70
2023-02-20T06:27:51.794Z,48.70
2023-02-20T06:30:19.614Z,48.70
2023-02-20T06:32:47.297Z,50.20
2023-02-20T06:35:15.685Z,49.10
2023-02-20T06:37:43.314Z,47.60
2023-02-20T06:40:12.184Z,48.10
2023-02-20T06:42:41.152Z,50.10
2023-02-20T06:45:08.872Z,48.40
2023-02-20T06:47:36.475Z,49.47
2023-02-20T06:50:04.154Z,48.00
2023-02-20T06:52:31.742Z,48.23
2023-02-20T06:54:59.349Z,48.40
2023-02-20T06:57:26.984Z,49.47
2023-02-20T06:59:56.181Z,49.70
2023-02-20T07:02:24.899Z,48.23
2023-02-20T07:04:52.576Z,47.03
2023-02-20T07:07:20.203Z,47.70
2023-02-20T07:09:47.813Z,46.13
2023-02-20T07:12:15.411Z,46.60
2023-02-20T07:14:43.093Z,47.03
2023-02-20T07:17:12.041Z,46.63
2023-02-20T07:19:39.711Z,48.40
2023-02-20T07:22:07.298Z,48.77
2023-02-20T07:24:36.791Z,46.80
2023-02-20T07:29:32.022Z,48.00
2023-02-20T07:31:59.883Z,49.90
2023-02-20T07:34:29.257Z,47.10
2023-02-20T07:36:56.862Z,48.67
2023-02-20T07:39:26.269Z,50.23
2023-02-20T07:41:53.844Z,46.83
2023-02-20T07:44:21.440Z,48.60
2023-02-20T07:46:49.071Z,47.50
2023-02-20T07:49:16.728Z,47.00
2023-02-20T07:51:45.702Z,45.77
2023-02-20T07:54:13.270Z,45.97
2023-02-20T07:56:41.793Z,46.00
2023-02-20T07:59:10.076Z,46.87
2023-02-20T08:01:37.703Z,48.73
2023-02-20T08:04:05.588Z,47.77
2023-02-20T08:06:33.183Z,44.80
2023-02-20T08:09:02.364Z,44.73
2023-02-20T08:11:33.947Z,47.60
2023-02-20T08:14:01.603Z,45.87
2023-02-20T08:16:29.284Z,45.43
2023-02-20T08:18:57.043Z,45.13
2023-02-20T08:21:24.674Z,45.43
2023-02-20T08:23:52.548Z,46.80
2023-02-20T08:26:21.567Z,46.50
2023-02-20T08:28:50.181Z,45.27
2023-02-20T08:31:31.270Z,46.17
2023-02-20T08:33:59.593Z,46.27
2023-02-20T08:36:27.155Z,46.93
2023-02-20T08:38:54.911Z,46.50
2023-02-20T08:41:24.150Z,46.30
2023-02-20T08:43:51.713Z,46.70
2023-02-20T08:46:19.331Z,47.13
2023-02-20T08:48:46.950Z,48.07
2023-02-20T08:51:14.677Z,47.00
2023-02-20T08:53:42.318Z,45.93
2023-02-20T08:56:10.090Z,44.10
2023-02-20T08:58:39.285Z,44.50
2023-02-20T09:01:07.182Z,45.90
2023-02-20T09:03:38.529Z,45.17
2023-02-20T09:06:06.746Z,43.97
2023-02-20T09:08:34.864Z,42.67
2023-02-20T09:11:02.634Z,43.87
2023-02-20T09:13:30.480Z,42.40
2023-02-20T09:15:59.742Z,42.13
2023-02-20T09:18:27.316Z,42.27
2023-02-20T09:20:55.040Z,43.63
2023-02-20T09:23:25.468Z,44.37
2023-02-20T09:25:53.632Z,42.57
2023-02-20T09:28:21.406Z,44.80
2023-02-20T09:30:48.994Z,42.40
2023-02-20T09:33:18.077Z,42.20
2023-02-20T09:35:45.724Z,44.80
2023-02-20T09:38:13.300Z,44.50
2023-02-20T09:40:41.135Z,41.80
2023-02-20T09:43:22.727Z,43.80
2023-02-20T09:45:57.396Z,41.40
2023-02-20T09:48:38.624Z,39.60
2023-02-20T09:51:12.130Z,39.70
2023-02-20T09:53:47.189Z,38.80
2023-02-20T09:56:20.611Z,39.87
2023-02-20T09:58:54.407Z,39.30
2023-02-20T10:01:24.340Z,38.70
2023-02-20T10:03:57.250Z,39.20
2023-02-20T10:06:27.077Z,38.53
2023-02-20T10:08:55.563Z,37.83
2023-02-20T10:11:39.916Z,39.67
2023-02-20T10:14:23.024Z,39.10
2023-02-20T10:17:01.376Z,37.90
2023-02-20T10:19:40.861Z,39.33
2023-02-20T10:22:14.363Z,39.47
2023-02-20T10:24:50.496Z,40.03
2023-02-20T10:27:28.765Z,39.80
2023-02-20T10:29:57.978Z,38.73
2023-02-20T10:32:32.048Z,39.07
2023-02-20T10:35:05.412Z,37.80
2023-02-20T10:37:47.149Z,36.27
2023-02-20T10:40:21.212Z,37.17
2023-02-20T10:43:00.637Z,38.63
2023-02-20T10:45:37.426Z,37.40
2023-02-20T10:48:07.402Z,37.67
2023-02-20T10:50:41.932Z,36.93
2023-02-20T10:53:19.424Z,37.40
2023-02-20T10:55:53.969Z,37.90
2023-02-20T10:58:27.503Z,35.70
2023-02-20T11:00:57.115Z,37.57
2023-02-20T11:03:30.852Z,37.87
2023-02-20T11:06:03.467Z,36.37
2023-02-20T11:08:31.196Z,36.17
2023-02-20T11:11:06.857Z,38.10
2023-02-20T11:13:34.720Z,36.00
2023-02-20T11:16:03.058Z,37.17
2023-02-20T11:18:35.952Z,36.77
2023-02-20T11:21:05.269Z,38.60
2023-02-20T11:23:36.732Z,37.40
2023-02-20T11:26:33.428Z,35.70
2023-02-20T11:29:06.745Z,36.13
2023-02-20T11:31:36.668Z,37.63
2023-02-20T11:34:06.662Z,35.97
2023-02-20T11:36:40.527Z,36.40
2023-02-20T11:39:21.370Z,35.87
2023-02-20T11:41:52.693Z,34.50
2023-02-20T11:44:26.567Z,37.10
2023-02-20T11:47:20.036Z,35.80
2023-02-20T11:49:48.602Z,36.30
2023-02-20T11:52:21.955Z,35.63
2023-02-20T11:55:09.322Z,34.83
2023-02-20T11:57:41.549Z,34.00
2023-02-20T12:00:12.278Z,35.97
2023-02-20T12:02:49.664Z,34.67
2023-02-20T12:05:18.050Z,35.80
2023-02-20T12:07:56.833Z,34.83
2023-02-20T12:10:30.277Z,34.37
2023-02-20T12:12:58.104Z,34.10
2023-02-20T12:15:27.998Z,34.33
2023-02-20T12:18:20.727Z,35.63
2023-02-20T12:20:55.473Z,34.77
2023-02-20T12:23:37.376Z,34.60
2023-02-20T12:26:21.297Z,35.47
2023-02-20T12:29:03.171Z,33.53
2023-02-20T12:31:44.259Z,34.80
2023-02-20T12:34:28.767Z,34.90
2023-02-20T12:37:02.897Z,35.00
2023-02-20T12:39:44.740Z,35.10
2023-02-20T12:42:24.587Z,35.73
2023-02-20T12:45:12.635Z,35.73
2023-02-20T12:47:43.967Z,36.67
2023-02-20T12:50:31.679Z,33.57
2023-02-20T12:53:20.152Z,36.60
2023-02-20T12:56:02.517Z,34.33
2023-02-20T12:58:38.710Z,35.57
2023-02-20T13:01:11.116Z,35.60
2023-02-20T13:03:47.033Z,37.07
2023-02-20T13:06:22.019Z,35.00
2023-02-20T13:09:00.670Z,38.50
2023-02-20T13:11:35.549Z,39.70
2023-02-20T13:14:15.632Z,42.40
2023-02-20T13:16:48.205Z,42.70
2023-02-20T13:19:22.475Z,40.67
2023-02-20T13:21:50.850Z,42.63
2023-02-20T13:24:32.722Z,45.83
2023-02-20T13:27:06.812Z,45.27
2023-02-20T13:29:36.766Z,45.60
2023-02-20T13:32:23.203Z,50.53
2023-02-20T13:34:50.925Z,55.03
2023-02-20T13:37:52.173Z,52.20
2023-02-20T13:40:39.631Z,52.00
2023-02-20T13:43:29.451Z,56.17
2023-02-20T13:46:22.452Z,57.80
2023-02-20T13:48:52.268Z,56.17
2023-02-20T13:51:36.484Z,60.93
2023-02-20T13:54:28.517Z,58.40
2023-02-20T13:57:02.972Z,59.83
2023-02-20T13:59:34.466Z,59.90
2023-02-20T14:02:15.899Z,58.70
2023-02-20T14:04:54.359Z,61.73
2023-02-20T14:07:38.346Z,64.50
2023-02-20T14:10:10.039Z,65.03
2023-02-20T14:12:39.188Z,68.00
2023-02-20T14:15:09.633Z,68.37
2023-02-20T14:17:39.666Z,63.97
2023-02-20T14:20:19.993Z,66.20
2023-02-20T14:22:47.614Z,71.87
2023-02-20T14:25:25.163Z,71.63
2023-02-20T14:27:53.327Z,74.80
2023-02-20T14:30:26.045Z,77.40
2023-02-20T14:32:56.265Z,77.03
2023-02-20T14:35:40.601Z,71.47
2023-02-20T14:38:30.888Z,66.67
2023-02-20T14:41:01.272Z,72.13
2023-02-20T14:43:29.861Z,67.50
2023-02-20T14:46:04.009Z,61.83
2023-02-20T14:48:34.017Z,59.67
2023-02-20T14:51:14.968Z,60.63
2023-02-20T14:53:42.914Z,61.43
2023-02-20T14:56:12.745Z,60.93
2023-02-20T14:58:40.577Z,59.03
2023-02-20T15:01:18.106Z,58.50
2023-02-20T15:03:58.953Z,58.97
2023-02-20T15:06:27.385Z,59.47
2023-02-20T15:08:59.077Z,58.17
2023-02-20T15:11:28.217Z,59.33
2023-02-20T15:13:57.962Z,58.67
2023-02-20T15:16:29.291Z,59.67
2023-02-20T15:18:57.039Z,57.70
2023-02-20T15:21:36.919Z,60.60
2023-02-20T15:24:27.392Z,59.93
2023-02-20T15:26:55.095Z,58.23
2023-02-20T15:29:25.116Z,59.20
2023-02-20T15:32:00.143Z,59.60
2023-02-20T15:34:30.258Z,59.43
2023-02-20T15:36:59.228Z,60.43
2023-02-20T15:39:27.124Z,59.73
2023-02-20T15:44:23.355Z,56.47
2023-02-20T15:46:50.998Z,58.37
2023-02-20T15:49:21.008Z,61.07
2023-02-20T15:51:52.403Z,60.03
2023-02-20T15:54:22.746Z,58.60
2023-02-20T15:56:50.474Z,58.10
2023-02-20T15:59:18.889Z,58.20
2023-02-20T16:01:48.542Z,60.50
2023-02-20T16:04:17.937Z,60.43
2023-02-20T16:06:46.993Z,62.90
2023-02-20T16:09:14.716Z,61.83
2023-02-20T16:11:46.073Z,65.53
2023-02-20T16:14:15.497Z,64.50
2023-02-20T16:16:44.929Z,65.57
2023-02-20T16:19:15.759Z,66.07
2023-02-20T16:21:57.787Z,66.47
2023-02-20T16:24:27.680Z,72.13
2023-02-20T16:26:55.739Z,75.50
2023-02-20T16:29:30.896Z,81.70
2023-02-20T16:32:17.638Z,92.87
2023-02-20T16:34:46.087Z,91.00
2023-02-20T16:37:15.105Z,87.50
2023-02-20T16:39:44.651Z,89.37
2023-02-20T16:42:20.888Z,95.10
2023-02-20T16:44:50.157Z,96.60
2023-02-20T16:47:19.711Z,98.33
2023-02-20T16:49:49.262Z,95.87
2023-02-20T16:52:21.720Z,108.57
2023-02-20T16:54:50.735Z,104.73
2023-02-20T16:57:18.963Z,107.57
2023-02-20T16:59:46.606Z,110.77
2023-02-20T17:02:17.332Z,114.37
2023-02-20T17:04:45.114Z,107.30
2023-02-20T17:07:12.976Z,109.90
2023-02-20T17:09:46.497Z,111.60
2023-02-20T17:12:18.023Z,120.97
2023-02-20T17:14:46.376Z,131.70
2023-02-20T17:17:14.598Z,136.23
2023-02-20T17:19:43.540Z,139.30
2023-02-20T17:22:11.940Z,141.67
2023-02-20T17:24:41.232Z,133.97
2023-02-20T17:27:10.418Z,134.20
2023-02-20T17:29:39.958Z,136.50
2023-02-20T17:32:07.815Z,152.77
2023-02-20T17:34:35.491Z,152.10
2023-02-20T17:37:03.334Z,158.80
2023-02-20T17:39:31.066Z,159.47
2023-02-20T17:41:58.881Z,167.33
2023-02-20T17:44:28.264Z,177.87
2023-02-20T17:46:59.346Z,171.53
2023-02-20T17:49:28.408Z,173.47
2023-02-20T17:52:00.112Z,174.77
2023-02-20T17:54:29.012Z,189.00
2023-02-20T17:56:56.998Z,204.00
2023-02-20T17:59:25.349Z,207.90
2023-02-20T18:01:53.165Z,220.47
2023-02-20T18:04:22.340Z,238.60
2023-02-20T18:06:50.064Z,255.93
2023-02-20T18:09:19.166Z,276.50
2023-02-20T18:11:47.107Z,300.90
2023-02-20T18:14:15.308Z,317.60
2023-02-20T18:16:44.271Z,340.70
2023-02-20T18:19:13.810Z,357.37
2023-02-20T18:21:44.713Z,394.60
2023-02-20T18:24:13.265Z,389.30
2023-02-20T18:26:40.908Z,394.63
2023-02-20T18:29:08.614Z,385.93
2023-02-20T18:31:36.677Z,367.87
2023-02-20T18:34:04.622Z,357.83
2023-02-20T18:36:32.413Z,342.30
2023-02-20T18:39:01.406Z,335.90
2023-02-20T18:41:28.999Z,296.33
2023-02-20T18:43:56.732Z,279.03
2023-02-20T18:46:29.305Z,260.87
2023-02-20T18:48:58.899Z,227.90
2023-02-20T18:51:28.637Z,219.13
2023-02-20T18:53:56.509Z,179.97
2023-02-20T18:56:26.770Z,146.07
2023-02-20T18:58:54.785Z,128.83
2023-02-20T19:01:23.754Z,119.43
2023-02-20T19:03:53.741Z,103.97
2023-02-20T19:06:33.046Z,88.20
2023-02-20T19:09:01.201Z,63.63
2023-02-20T19:11:30.935Z,62.73
2023-02-20T19:13:58.930Z,56.90
2023-02-20T19:16:26.517Z,54.70
2023-02-20T19:18:54.224Z,54.40
2023-02-20T19:21:22.276Z,48.57
2023-02-20T19:23:49.917Z,50.20
2023-02-20T19:26:17.656Z,50.50
2023-02-20T19:28:47.726Z,51.97
2023-02-20T19:31:17.229Z,51.23
2023-02-20T19:33:49.066Z,49.20
2023-02-20T19:36:16.675Z,49.40
2023-02-20T19:38:44.344Z,51.17
2023-02-20T19:41:13.918Z,48.30
2023-02-20T19:43:42.178Z,48.10
2023-02-20T19:46:16.615Z,47.43
2023-02-20T19:48:45.187Z,45.03
2023-02-20T19:51:13.463Z,44.07
2023-02-20T19:53:41.435Z,45.10
2023-02-20T19:56:11.200Z,44.83
2023-02-20T19:58:41.312Z,44.07
2023-02-20T20:01:12.507Z,43.90
2023-02-20T20:03:41.556Z,46.80
2023-02-20T20:06:10.716Z,43.13
2023-02-20T20:08:43.692Z,44.60
2023-02-20T20:11:19.282Z,42.90
2023-02-20T20:13:46.894Z,45.47
2023-02-20T20:16:15.702Z,45.80
2023-02-20T20:18:45.865Z,49.70
2023-02-20T20:21:14.215Z,68.47
2023-02-20T20:23:41.843Z,74.40
2023-02-20T20:26:09.516Z,79.23
2023-02-20T20:28:37.963Z,81.30
2023-02-20T20:31:06.615Z,76.43
2023-02-20T20:33:34.179Z,83.40
2023-02-20T20:36:03.267Z,94.40
2023-02-20T20:38:30.945Z,116.53
2023-02-20T20:40:58.542Z,129.67
2023-02-20T20:43:26.250Z,125.43
2023-02-20T20:45:53.867Z,128.87
2023-02-20T20:48:21.489Z,128.70
2023-02-20T20:50:49.426Z,132.80
2023-02-20T20:53:18.371Z,144.67
2023-02-20T20:55:46.375Z,148.73
2023-02-20T20:58:14.213Z,161.50
2023-02-20T21:00:41.838Z,159.00
2023-02-20T21:03:10.938Z,167.37
2023-02-20T21:05:38.840Z,180.23
2023-02-20T21:08:07.832Z,169.80
2023-02-20T21:10:38.054Z,172.90
2023-02-20T21:13:05.892Z,186.37
2023-02-20T21:15:34.314Z,200.33
2023-02-20T21:18:02.482Z,213.43
2023-02-20T21:20:31.331Z,193.95
2023-02-20T21:23:00.281Z,186.50
2023-02-20T21:25:28.565Z,190.13
2023-02-20T21:27:58.512Z,194.00
2023-02-20T21:30:27.525Z,188.50
2023-02-20T21:32:55.874Z,190.83
2023-02-20T21:35:26.016Z,181.60
2023-02-20T21:37:54.019Z,177.67
2023-02-20T21:40:21.624Z,175.07
2023-02-20T21:43:06.731Z,176.40
2023-02-20T21:45:36.463Z,173.80
2023-02-20T21:48:05.552Z,184.67
2023-02-20T21:50:33.313Z,194.20
2023-02-20T21:53:01.989Z,193.20
2023-02-20T21:55:30.095Z,190.47
2023-02-20T21:58:02.609Z,192.30
2023-02-20T22:00:29.122Z,187.40
2023-02-20T22:02:57.024Z,181.43
2023-02-20T22:05:23.685Z,184.73
2023-02-20T22:08:08.762Z,187.57
2023-02-20T22:10:53.708Z,170.90
2023-02-20T22:13:39.084Z,168.30
2023-02-20T22:16:24.539Z,168.03
2023-02-20T22:19:11.140Z,163.70
2023-02-20T22:21:56.359Z,162.63
2023-02-20T22:24:41.771Z,160.73
2023-02-20T22:27:27.989Z,162.33
2023-02-20T22:30:13.741Z,155.90
2023-02-20T22:32:59.011Z,161.47
2023-02-20T22:35:45.678Z,162.47
2023-02-20T22:38:31.130Z,146.17
2023-02-20T22:41:16.682Z,135.87
2023-02-20T22:44:02.339Z,124.47
2023-02-20T22:46:47.697Z,126.60
2023-02-20T22:49:32.807Z,123.00
2023-02-20T22:52:19.466Z,119.40
2023-02-20T22:55:05.889Z,119.80
2023-02-20T22:57:51.586Z,120.30
2023-02-20T23:00:37.401Z,119.77
2023-02-20T23:03:22.732Z,116.27
2023-02-20T23:06:17.000Z,120.47
2023-02-20T23:09:04.781Z,118.17
2023-02-20T23:11:52.098Z,113.00
2023-02-20T23:14:37.355Z,103.43
2023-02-20T23:17:34.920Z,102.40
2023-02-20T23:20:21.651Z,94.77
2023-02-20T23:23:06.967Z,94.63
2023-02-20T23:25:53.533Z,92.63
2023-02-20T23:28:38.630Z,90.47
2023-02-20T23:31:24.018Z,92.43
2023-02-20T23:34:09.490Z,92.57
2023-02-20T23:36:54.720Z,87.90
2023-02-20T23:39:39.788Z,93.60
2023-02-20T23:42:26.317Z,93.30
2023-02-20T23:45:11.729Z,92.53
2023-02-20T23:47:59.117Z,92.00
2023-02-20T23:50:44.075Z,86.30
2023-02-20T23:53:29.452Z,82.73
2023-02-20T23:56:14.774Z,67.60
2023-02-20T23:59:01.254Z,69.93
